createdAt,value
2022-08-25T00:02:00.741Z,19.78
2022-08-25T00:04:31.197Z,19.82
2022-08-25T00:07:03.522Z,19.85
2022-08-25T00:09:32.869Z,19.90
2022-08-25T00:12:00.751Z,19.94
2022-08-25T00:14:32.793Z,19.98
2022-08-25T00:17:00.256Z,19.87
2022-08-25T00:19:32.148Z,19.96
2022-08-25T00:22:01.035Z,19.94
2022-08-25T00:24:29.672Z,20.01
2022-08-25T00:26:58.339Z,19.99
2022-08-25T00:29:27.086Z,20.04
2022-08-25T00:31:55.994Z,20.03
2022-08-25T00:34:33.055Z,20.03
2022-08-25T00:37:01.400Z,20.03
2022-08-25T00:39:28.832Z,20.00
2022-08-25T00:41:57.881Z,20.01
2022-08-25T00:44:27.926Z,20.05
2022-08-25T00:46:58.081Z,20.07
2022-08-25T00:49:42.812Z,20.09
2022-08-25T00:52:24.635Z,20.09
2022-08-25T00:55:09.360Z,20.03
2022-08-25T00:57:41.353Z,20.05
2022-08-25T01:00:26.014Z,20.06
2022-08-25T01:02:54.469Z,20.08
2022-08-25T01:05:22.244Z,20.02
2022-08-25T01:07:50.691Z,20.05
2022-08-25T01:10:20.481Z,19.98
2022-08-25T01:12:49.022Z,20.01
2022-08-25T01:15:16.903Z,20.03
2022-08-25T01:17:47.649Z,20.06
2022-08-25T01:20:16.582Z,20.07
2022-08-25T01:22:43.781Z,20.11
2022-08-25T01:25:42.459Z,20.11
2022-08-25T01:28:09.983Z,20.15
2022-08-25T01:30:38.299Z,20.13
2022-08-25T01:33:07.610Z,20.14
2022-08-25T01:35:36.170Z,20.11
2022-08-25T01:38:05.875Z,20.16
2022-08-25T01:40:33.734Z,20.19
2022-08-25T01:43:06.972Z,20.24
2022-08-25T01:45:35.576Z,20.27
2022-08-25T01:48:03.478Z,20.24
2022-08-25T01:50:32.000Z,20.25
2022-08-25T01:53:27.588Z,20.31
2022-08-25T01:56:09.579Z,20.29
2022-08-25T01:58:40.321Z,20.36
2022-08-25T02:01:12.800Z,20.36
2022-08-25T02:03:42.540Z,20.38
2022-08-25T02:06:13.025Z,20.41
2022-08-25T02:08:41.077Z,20.43
2022-08-25T02:11:13.878Z,20.41
2022-08-25T02:13:42.344Z,20.47
2022-08-25T02:16:11.335Z,20.51
2022-08-25T02:18:38.669Z,20.53
2022-08-25T02:21:06.308Z,20.57
2022-08-25T02:23:33.830Z,20.60
2022-08-25T02:26:01.311Z,20.59
2022-08-25T02:28:28.696Z,20.68
2022-08-25T02:31:01.067Z,20.66
2022-08-25T02:33:29.404Z,20.68
2022-08-25T02:36:00.794Z,20.69
2022-08-25T02:38:29.373Z,20.68
2022-08-25T02:40:57.755Z,20.69
2022-08-25T02:43:26.309Z,20.72
2022-08-25T02:45:55.654Z,20.69
2022-08-25T02:48:23.604Z,20.73
2022-08-25T02:50:53.072Z,20.76
2022-08-25T02:53:21.228Z,20.77
2022-08-25T02:55:48.566Z,20.75
2022-08-25T02:58:16.070Z,20.74
2022-08-25T03:00:43.889Z,20.75
2022-08-25T03:03:11.239Z,20.76
2022-08-25T03:05:38.724Z,20.80
2022-08-25T03:08:08.113Z,20.82
2022-08-25T03:10:35.761Z,20.82
2022-08-25T03:13:03.600Z,20.84
2022-08-25T03:15:31.597Z,20.78
2022-08-25T03:18:00.018Z,20.85
2022-08-25T03:20:28.663Z,20.79
2022-08-25T03:22:56.483Z,20.80
2022-08-25T03:25:49.961Z,20.75
2022-08-25T03:28:17.773Z,20.78
2022-08-25T03:30:45.413Z,20.78
2022-08-25T03:33:12.769Z,20.86
2022-08-25T03:35:41.439Z,20.76
2022-08-25T03:38:08.723Z,20.75
2022-08-25T03:40:36.059Z,20.71
2022-08-25T03:43:03.804Z,20.72
2022-08-25T03:45:31.629Z,20.72
2022-08-25T03:47:59.498Z,20.73
2022-08-25T03:50:27.170Z,20.70
2022-08-25T03:52:56.321Z,20.67
2022-08-25T03:55:25.660Z,20.70
2022-08-25T03:57:54.508Z,20.67
2022-08-25T04:00:23.843Z,20.67
2022-08-25T04:02:51.311Z,20.67
2022-08-25T04:05:20.353Z,20.70
2022-08-25T04:07:47.700Z,20.70
2022-08-25T04:10:15.579Z,20.62
2022-08-25T04:12:43.250Z,20.69
2022-08-25T04:15:11.141Z,20.67
2022-08-25T04:17:40.231Z,20.73
2022-08-25T04:20:10.134Z,20.68
2022-08-25T04:22:41.509Z,20.71
2022-08-25T04:25:12.953Z,20.60
2022-08-25T04:27:40.766Z,20.50
2022-08-25T04:30:08.669Z,20.54
2022-08-25T04:32:37.163Z,20.48
2022-08-25T04:35:05.539Z,20.44
2022-08-25T04:37:33.556Z,20.41
2022-08-25T04:40:01.039Z,20.39
2022-08-25T04:42:28.682Z,20.43
2022-08-25T04:44:56.282Z,20.44
2022-08-25T04:47:24.150Z,20.43
2022-08-25T04:49:51.434Z,20.52
2022-08-25T04:52:18.699Z,20.51
2022-08-25T04:54:46.969Z,20.55
2022-08-25T04:57:14.304Z,20.57
2022-08-25T04:59:41.664Z,20.62
2022-08-25T05:02:10.114Z,20.68
2022-08-25T05:04:38.295Z,20.71
2022-08-25T05:07:05.860Z,20.75
2022-08-25T05:09:34.023Z,20.82
2022-08-25T05:12:02.914Z,20.83
2022-08-25T05:14:32.463Z,20.94
2022-08-25T05:17:00.413Z,20.95
2022-08-25T05:19:27.924Z,21.04
2022-08-25T05:21:57.794Z,21.11
2022-08-25T05:24:26.850Z,21.16
2022-08-25T05:26:54.404Z,21.16
2022-08-25T05:29:21.928Z,21.27
2022-08-25T05:31:50.946Z,21.33
2022-08-25T05:34:19.761Z,21.39
2022-08-25T05:36:48.238Z,21.51
2022-08-25T05:39:15.793Z,21.56
2022-08-25T05:41:43.202Z,21.84
2022-08-25T05:44:12.561Z,22.15
2022-08-25T05:46:40.202Z,22.49
2022-08-25T05:49:07.760Z,22.79
2022-08-25T05:51:34.972Z,23.16
2022-08-25T05:54:03.768Z,23.50
2022-08-25T05:56:31.505Z,23.82
2022-08-25T05:58:58.949Z,24.14
2022-08-25T06:01:47.318Z,24.38
2022-08-25T06:04:16.729Z,24.27
2022-08-25T06:06:44.307Z,24.39
2022-08-25T06:09:12.455Z,24.51
2022-08-25T06:11:40.999Z,24.49
2022-08-25T06:14:10.142Z,24.81
2022-08-25T06:16:39.270Z,24.71
2022-08-25T06:19:08.716Z,24.81
2022-08-25T06:21:39.205Z,24.71
2022-08-25T06:24:12.049Z,24.76
2022-08-25T06:26:42.530Z,24.66
2022-08-25T06:29:09.929Z,24.51
2022-08-25T06:31:37.401Z,24.57
2022-08-25T06:34:06.267Z,24.57
2022-08-25T06:36:34.842Z,24.52
2022-08-25T06:39:02.259Z,24.61
2022-08-25T06:41:36.928Z,24.74
2022-08-25T06:44:05.818Z,24.71
2022-08-25T06:46:36.516Z,24.62
2022-08-25T06:49:07.345Z,24.57
2022-08-25T06:51:38.428Z,24.62
2022-08-25T06:54:07.648Z,24.68
2022-08-25T06:56:34.827Z,24.60
2022-08-25T06:59:06.051Z,24.73
2022-08-25T07:01:35.183Z,24.72
2022-08-25T07:04:07.560Z,24.81
2022-08-25T07:06:38.077Z,24.91
2022-08-25T07:09:07.299Z,25.05
2022-08-25T07:11:34.892Z,25.10
2022-08-25T07:14:04.716Z,25.28
2022-08-25T07:16:32.825Z,25.35
2022-08-25T07:19:01.234Z,25.38
2022-08-25T07:21:33.592Z,25.46
2022-08-25T07:24:06.862Z,25.37
2022-08-25T07:26:38.588Z,25.42
2022-08-25T07:29:13.318Z,25.44
2022-08-25T07:31:41.159Z,25.44
2022-08-25T07:34:28.380Z,25.39
2022-08-25T07:36:57.482Z,25.41
2022-08-25T07:39:26.472Z,25.80
2022-08-25T07:41:55.194Z,26.18
2022-08-25T07:44:23.199Z,26.45
2022-08-25T07:46:51.729Z,26.52
2022-08-25T07:49:23.520Z,26.59
2022-08-25T07:52:05.202Z,26.72
2022-08-25T07:54:38.051Z,26.99
2022-08-25T07:57:08.648Z,27.57
2022-08-25T07:59:40.886Z,27.77
2022-08-25T08:02:17.824Z,27.96
2022-08-25T08:04:49.859Z,28.18
2022-08-25T08:07:20.040Z,28.55
2022-08-25T08:09:53.104Z,28.88
2022-08-25T08:12:25.032Z,28.82
2022-08-25T08:14:52.724Z,28.81
2022-08-25T08:17:21.116Z,28.97
2022-08-25T08:19:49.029Z,29.02
2022-08-25T08:22:16.438Z,29.23
2022-08-25T08:24:54.834Z,29.36
2022-08-25T08:27:24.675Z,29.35
2022-08-25T08:29:53.795Z,29.52
2022-08-25T08:32:21.453Z,29.58
2022-08-25T08:34:53.188Z,29.54
2022-08-25T08:37:23.052Z,29.50
2022-08-25T08:39:52.630Z,29.71
2022-08-25T08:42:47.063Z,29.84
2022-08-25T08:45:49.665Z,29.50
2022-08-25T08:48:24.455Z,29.72
2022-08-25T08:51:26.439Z,29.74
2022-08-25T08:54:15.562Z,29.81
2022-08-25T08:56:48.163Z,29.88
2022-08-25T08:59:19.327Z,30.17
2022-08-25T09:01:52.496Z,29.86
2022-08-25T09:04:39.387Z,30.01
2022-08-25T09:07:20.783Z,29.99
2022-08-25T09:09:49.061Z,29.68
2022-08-25T09:12:25.579Z,29.84
2022-08-25T09:15:54.665Z,29.84
2022-08-25T09:18:57.806Z,29.86
2022-08-25T09:21:28.470Z,30.04
2022-08-25T09:23:59.569Z,30.14
2022-08-25T09:26:34.318Z,30.10
2022-08-25T09:29:06.530Z,30.12
2022-08-25T09:31:45.308Z,29.95
2022-08-25T09:34:25.250Z,29.89
2022-08-25T09:36:53.369Z,29.98
2022-08-25T09:39:21.381Z,30.02
2022-08-25T09:41:54.129Z,30.21
2022-08-25T09:44:27.423Z,30.34
2022-08-25T09:47:02.367Z,30.33
2022-08-25T09:49:43.133Z,30.41
2022-08-25T09:52:29.184Z,30.21
2022-08-25T09:55:00.090Z,30.30
2022-08-25T09:57:32.462Z,30.51
2022-08-25T10:00:20.167Z,30.32
2022-08-25T10:03:13.282Z,30.67
2022-08-25T10:06:20.509Z,30.94
2022-08-25T10:08:48.461Z,31.09
2022-08-25T10:11:38.491Z,31.05
2022-08-25T10:14:21.090Z,30.59
2022-08-25T10:16:50.235Z,30.76
2022-08-25T10:19:30.285Z,30.70
2022-08-25T10:22:07.658Z,30.90
2022-08-25T10:24:35.623Z,31.00
2022-08-25T10:27:40.772Z,30.79
2022-08-25T10:30:11.259Z,30.78
2022-08-25T10:32:57.181Z,30.92
2022-08-25T10:35:32.902Z,31.03
2022-08-25T10:38:21.745Z,31.11
2022-08-25T10:41:27.164Z,31.16
2022-08-25T10:44:27.892Z,31.24
2022-08-25T10:47:03.240Z,31.33
2022-08-25T10:49:46.801Z,31.32
2022-08-25T10:52:23.435Z,31.39
2022-08-25T10:55:02.435Z,31.15
2022-08-25T10:57:39.130Z,31.21
2022-08-25T11:00:22.689Z,31.41
2022-08-25T11:03:11.021Z,31.38
2022-08-25T11:06:04.611Z,31.53
2022-08-25T11:08:40.191Z,31.46
2022-08-25T11:11:21.785Z,31.34
2022-08-25T11:14:05.712Z,31.32
2022-08-25T11:16:46.812Z,31.49
2022-08-25T11:19:24.238Z,31.77
2022-08-25T11:22:12.208Z,31.99
2022-08-25T11:24:40.667Z,32.10
2022-08-25T11:27:14.644Z,32.11
2022-08-25T11:29:53.448Z,32.17
2022-08-25T11:32:24.828Z,32.27
2022-08-25T11:34:53.488Z,32.37
2022-08-25T11:37:26.935Z,32.36
2022-08-25T11:39:57.533Z,32.48
2022-08-25T11:42:48.520Z,32.54
2022-08-25T11:45:22.111Z,32.60
2022-08-25T11:47:59.518Z,32.54
2022-08-25T11:50:30.074Z,32.29
2022-08-25T11:53:01.453Z,32.31
2022-08-25T11:55:35.178Z,32.30
2022-08-25T11:58:53.263Z,32.32
2022-08-25T12:01:40.093Z,32.25
2022-08-25T12:04:37.812Z,32.24
2022-08-25T12:07:20.131Z,32.24
2022-08-25T12:09:50.574Z,32.31
2022-08-25T12:12:48.879Z,32.37
2022-08-25T12:15:19.752Z,32.52
2022-08-25T12:18:09.024Z,32.58
2022-08-25T12:20:55.549Z,32.52
2022-08-25T12:23:44.990Z,32.44
2022-08-25T12:26:36.931Z,32.47
2022-08-25T12:29:25.960Z,32.54
2022-08-25T12:32:38.790Z,32.52
2022-08-25T12:35:32.333Z,32.47
2022-08-25T12:38:04.984Z,32.50
2022-08-25T12:40:37.358Z,32.52
2022-08-25T12:43:10.509Z,32.59
2022-08-25T12:45:41.263Z,32.60
2022-08-25T12:48:43.760Z,32.68
2022-08-25T12:51:36.051Z,32.71
2022-08-25T12:54:41.264Z,32.70
2022-08-25T12:57:42.274Z,32.57
2022-08-25T13:00:22.720Z,32.38
2022-08-25T13:03:10.796Z,32.41
2022-08-25T13:06:01.810Z,32.50
2022-08-25T13:08:48.644Z,32.57
2022-08-25T13:11:35.521Z,32.62
2022-08-25T13:14:26.764Z,32.58
2022-08-25T13:17:01.411Z,32.53
2022-08-25T13:19:35.303Z,32.53
2022-08-25T13:22:16.104Z,32.69
2022-08-25T13:24:47.461Z,32.66
2022-08-25T13:27:30.567Z,32.40
2022-08-25T13:30:03.803Z,32.26
2022-08-25T13:32:35.275Z,32.18
2022-08-25T13:35:20.403Z,32.18
2022-08-25T13:37:48.939Z,32.16
2022-08-25T13:40:43.331Z,32.12
2022-08-25T13:43:14.269Z,32.24
2022-08-25T13:45:47.768Z,32.30
2022-08-25T13:48:39.453Z,32.32
2022-08-25T13:51:21.516Z,32.39
2022-08-25T13:53:54.517Z,32.41
2022-08-25T13:56:25.779Z,32.47
2022-08-25T13:58:54.342Z,32.43
2022-08-25T14:01:48.216Z,32.42
2022-08-25T14:04:39.022Z,32.31
2022-08-25T14:07:21.216Z,32.16
2022-08-25T14:10:04.459Z,32.10
2022-08-25T14:12:37.739Z,32.11
2022-08-25T14:15:18.605Z,32.07
2022-08-25T14:18:08.394Z,32.08
2022-08-25T14:20:37.327Z,32.09
2022-08-25T14:23:12.907Z,31.98
2022-08-25T14:25:47.286Z,31.92
2022-08-25T14:28:19.905Z,31.95
2022-08-25T14:30:51.676Z,31.89
2022-08-25T14:33:23.726Z,31.89
2022-08-25T14:35:53.764Z,31.85
2022-08-25T14:38:22.959Z,31.86
2022-08-25T14:40:51.221Z,31.83
2022-08-25T14:43:23.858Z,31.71
2022-08-25T14:45:57.914Z,31.81
2022-08-25T14:48:29.670Z,31.71
2022-08-25T14:50:59.193Z,31.74
2022-08-25T14:53:27.854Z,31.81
2022-08-25T14:55:58.848Z,31.77
2022-08-25T14:58:28.000Z,31.76
2022-08-25T15:01:03.289Z,31.72
2022-08-25T15:03:33.496Z,31.71
2022-08-25T15:06:01.465Z,31.71
2022-08-25T15:08:47.588Z,31.74
2022-08-25T15:11:15.233Z,31.57
2022-08-25T15:13:49.370Z,31.44
2022-08-25T15:16:35.071Z,31.41
2022-08-25T15:19:06.976Z,31.44
2022-08-25T15:21:36.277Z,31.44
2022-08-25T15:24:05.675Z,31.49
2022-08-25T15:26:36.218Z,31.49
2022-08-25T15:29:04.050Z,31.44
2022-08-25T15:31:31.915Z,31.39
2022-08-25T15:34:00.731Z,31.36
2022-08-25T15:36:28.470Z,31.26
2022-08-25T15:38:56.125Z,31.26
2022-08-25T15:41:27.755Z,31.17
2022-08-25T15:43:56.848Z,31.19
2022-08-25T15:46:25.891Z,31.09
2022-08-25T15:51:20.995Z,31.05
2022-08-25T15:53:48.939Z,31.01
2022-08-25T15:56:26.417Z,30.93
2022-08-25T15:58:55.732Z,30.83
2022-08-25T16:01:25.886Z,30.84
2022-08-25T16:03:54.370Z,30.78
2022-08-25T16:06:22.048Z,30.69
2022-08-25T16:08:49.491Z,30.61
2022-08-25T16:11:22.727Z,30.55
2022-08-25T16:13:51.723Z,30.45
2022-08-25T16:16:21.081Z,30.42
2022-08-25T16:18:48.852Z,30.35
2022-08-25T16:21:21.046Z,30.33
2022-08-25T16:23:48.994Z,30.29
2022-08-25T16:26:17.262Z,30.21
2022-08-25T16:28:45.360Z,30.18
2022-08-25T16:31:15.132Z,30.09
2022-08-25T16:33:44.698Z,30.02
2022-08-25T16:36:21.559Z,30.00
2022-08-25T16:38:50.300Z,29.86
2022-08-25T16:41:24.919Z,29.82
2022-08-25T16:43:52.606Z,29.75
2022-08-25T16:46:21.716Z,29.62
2022-08-25T16:48:51.412Z,29.55
2022-08-25T16:51:22.715Z,29.42
2022-08-25T16:54:18.553Z,29.28
2022-08-25T16:56:54.694Z,29.15
2022-08-25T16:59:23.438Z,29.06
2022-08-25T17:01:51.382Z,28.95
2022-08-25T17:04:18.878Z,28.84
2022-08-25T17:06:49.334Z,28.72
2022-08-25T17:09:23.925Z,28.68
2022-08-25T17:11:54.567Z,28.54
2022-08-25T17:14:22.418Z,28.42
2022-08-25T17:16:54.822Z,28.22
2022-08-25T17:19:23.988Z,28.11
2022-08-25T17:21:52.411Z,27.88
2022-08-25T17:24:21.050Z,27.67
2022-08-25T17:26:51.860Z,27.67
2022-08-25T17:29:19.410Z,27.42
2022-08-25T17:31:48.439Z,27.35
2022-08-25T17:34:16.928Z,27.23
2022-08-25T17:36:48.677Z,27.07
2022-08-25T17:39:18.466Z,26.90
2022-08-25T17:41:46.233Z,26.76
2022-08-25T17:44:14.014Z,26.58
2022-08-25T17:46:47.607Z,26.42
2022-08-25T17:49:17.143Z,26.20
2022-08-25T17:51:45.097Z,25.91
2022-08-25T17:54:13.146Z,25.85
2022-08-25T17:56:41.307Z,25.44
2022-08-25T17:59:09.279Z,25.25
2022-08-25T18:01:40.140Z,25.03
2022-08-25T18:04:14.280Z,24.72
2022-08-25T18:06:46.553Z,24.37
2022-08-25T18:09:15.274Z,24.08
2022-08-25T18:11:42.891Z,23.88
2022-08-25T18:14:11.552Z,23.79
2022-08-25T18:16:39.302Z,23.74
2022-08-25T18:19:09.868Z,23.64
2022-08-25T18:21:37.927Z,23.46
2022-08-25T18:24:06.795Z,23.45
2022-08-25T18:26:35.134Z,23.31
2022-08-25T18:29:03.110Z,23.21
2022-08-25T18:31:31.183Z,23.13
2022-08-25T18:33:59.699Z,22.98
2022-08-25T18:36:27.474Z,22.87
2022-08-25T18:39:14.131Z,22.74
2022-08-25T18:41:42.796Z,22.61
2022-08-25T18:44:12.681Z,22.43
2022-08-25T18:46:45.438Z,22.35
2022-08-25T18:49:16.005Z,22.26
2022-08-25T18:51:44.893Z,22.15
2022-08-25T18:54:22.816Z,22.14
2022-08-25T18:56:54.811Z,22.07
2022-08-25T18:59:23.775Z,21.98
2022-08-25T19:01:53.069Z,21.87
2022-08-25T19:04:20.690Z,21.62
2022-08-25T19:06:56.318Z,21.56
2022-08-25T19:09:23.721Z,21.56
2022-08-25T19:11:52.907Z,21.55
2022-08-25T19:14:22.352Z,21.56
2022-08-25T19:16:51.908Z,21.54
2022-08-25T19:19:20.273Z,21.53
2022-08-25T19:21:48.430Z,21.49
2022-08-25T19:24:18.609Z,21.45
2022-08-25T19:26:46.259Z,21.46
2022-08-25T19:29:15.946Z,21.36
2022-08-25T19:31:46.974Z,21.32
2022-08-25T19:34:20.827Z,21.31
2022-08-25T19:36:48.941Z,21.11
2022-08-25T19:39:16.764Z,21.17
2022-08-25T19:41:45.598Z,21.14
2022-08-25T19:44:13.674Z,21.00
2022-08-25T19:46:43.384Z,20.98
2022-08-25T19:49:14.626Z,20.99
2022-08-25T19:51:50.627Z,20.95
2022-08-25T19:54:27.459Z,20.90
2022-08-25T19:56:55.804Z,20.85
2022-08-25T19:59:25.824Z,20.82
2022-08-25T20:01:54.017Z,20.76
2022-08-25T20:04:24.149Z,20.64
2022-08-25T20:06:55.436Z,20.63
2022-08-25T20:09:39.545Z,20.56
2022-08-25T20:12:12.022Z,20.48
2022-08-25T20:14:40.030Z,20.40
2022-08-25T20:17:23.586Z,20.38
2022-08-25T20:19:55.494Z,20.29
2022-08-25T20:22:26.385Z,20.19
2022-08-25T20:24:58.186Z,20.03
2022-08-25T20:27:35.548Z,20.03
2022-08-25T20:30:07.141Z,19.97
2022-08-25T20:32:36.053Z,19.91
2022-08-25T20:35:06.006Z,19.81
2022-08-25T20:37:36.761Z,19.81
2022-08-25T20:40:05.498Z,19.79
2022-08-25T20:42:33.248Z,19.54
2022-08-25T20:45:01.014Z,19.58
2022-08-25T20:47:28.872Z,19.56
2022-08-25T20:50:00.401Z,19.46
2022-08-25T20:52:31.277Z,19.28
2022-08-25T20:54:58.632Z,19.15
2022-08-25T20:57:26.591Z,19.09
2022-08-25T20:59:57.646Z,19.09
2022-08-25T21:02:26.294Z,19.05
2022-08-25T21:04:54.553Z,19.01
2022-08-25T21:07:25.847Z,18.94
2022-08-25T21:09:53.668Z,18.91
2022-08-25T21:12:21.149Z,18.86
2022-08-25T21:14:49.213Z,18.81
2022-08-25T21:17:19.245Z,18.82
2022-08-25T21:22:16.766Z,18.77
2022-08-25T21:24:45.146Z,18.75
2022-08-25T21:27:12.748Z,18.73
2022-08-25T21:29:54.409Z,18.67
2022-08-25T21:32:24.193Z,18.62
2022-08-25T21:34:54.098Z,18.58
2022-08-25T21:37:22.153Z,18.52
2022-08-25T21:39:50.389Z,18.46
2022-08-25T21:42:20.412Z,18.45
2022-08-25T21:44:50.681Z,18.41
2022-08-25T21:47:20.981Z,18.26
2022-08-25T21:49:49.993Z,18.17
2022-08-25T21:52:18.308Z,18.14
2022-08-25T21:54:46.128Z,18.14
2022-08-25T21:57:13.949Z,18.07
2022-08-25T21:59:43.449Z,18.04
2022-08-25T22:02:13.360Z,18.01
2022-08-25T22:04:42.860Z,17.98
2022-08-25T22:07:11.169Z,17.93
2022-08-25T22:09:40.183Z,17.88
2022-08-25T22:12:08.370Z,17.86
2022-08-25T22:14:36.984Z,17.83
2022-08-25T22:17:06.982Z,17.82
2022-08-25T22:19:37.030Z,17.77
2022-08-25T22:22:06.916Z,17.65
2022-08-25T22:24:34.327Z,17.57
2022-08-25T22:27:02.521Z,17.53
2022-08-25T22:29:30.646Z,17.52
2022-08-25T22:31:59.975Z,17.47
2022-08-25T22:34:34.634Z,17.44
2022-08-25T22:37:04.061Z,17.38
2022-08-25T22:39:34.433Z,17.31
2022-08-25T22:42:03.398Z,17.25
2022-08-25T22:44:30.990Z,17.25
2022-08-25T22:46:58.657Z,17.19
2022-08-25T22:49:28.774Z,17.15
2022-08-25T22:51:56.343Z,17.02
2022-08-25T22:54:25.722Z,16.95
2022-08-25T22:56:53.648Z,16.90
2022-08-25T22:59:22.196Z,16.87
2022-08-25T23:01:52.389Z,16.85
2022-08-25T23:04:20.179Z,16.83
2022-08-25T23:06:47.530Z,16.81
2022-08-25T23:09:15.113Z,16.78
2022-08-25T23:11:43.399Z,16.76
2022-08-25T23:14:11.518Z,16.76
2022-08-25T23:16:43.282Z,16.71
2022-08-25T23:19:13.867Z,16.53
2022-08-25T23:22:02.122Z,16.43
2022-08-25T23:24:30.981Z,16.34
2022-08-25T23:27:00.963Z,16.32
2022-08-25T23:29:29.243Z,16.29
2022-08-25T23:31:57.991Z,16.26
2022-08-25T23:34:26.868Z,16.22
2022-08-25T23:36:56.722Z,16.20
2022-08-25T23:39:24.328Z,16.19
2022-08-25T23:41:52.514Z,16.17
2022-08-25T23:44:21.459Z,16.17
2022-08-25T23:46:49.601Z,16.19
2022-08-25T23:49:19.419Z,16.19
2022-08-25T23:51:50.253Z,16.18
2022-08-25T23:54:20.637Z,16.15
2022-08-25T23:56:51.879Z,16.09
2022-08-25T23:59:23.967Z,16.07
